Time;durP1;ratioP1;P1;durP2;ratioP2;P2;SDS_P1;SDS_P2;PMS_P1;PMS_P2;Temp;Humidity;BMP_temperature;BMP_pressure;BME280_temperature;BME280_humidity;BME280_pressure;Samples;Min_cycle;Max_cycle;Signal;HPM_P1;HPM_P2
2024/01/26 00:04:23;;;;;;;12.03;3.67;;;;;;;3.96;100.00;101372.94;4669490;60;1138600;-80
2024/01/26 00:09:29;;;;;;;15.87;3.10;;;;;;;4.00;100.00;101375.36;4678407;60;1138673;-80
2024/01/26 00:14:34;;;;;;;11.60;3.70;;;;;;;4.03;100.00;101382.25;4670907;60;1138962;-80
2024/01/26 00:19:41;;;;;;;19.40;4.13;;;;;;;3.97;100.00;101384.66;4667427;60;1138923;-80
2024/01/26 00:24:46;;;;;;;10.63;3.50;;;;;;;4.00;100.00;101391.06;4656273;60;1139031;-80
2024/01/26 00:29:52;;;;;;;19.80;3.00;;;;;;;4.05;100.00;101406.61;4671366;60;1138926;-80
2024/01/26 00:34:58;;;;;;;12.10;3.03;;;;;;;4.02;100.00;101397.55;4666385;60;1138881;-80
2024/01/26 00:40:03;;;;;;;18.43;3.90;;;;;;;3.98;100.00;101417.74;4618006;60;1139070;-80
2024/01/26 00:45:09;;;;;;;20.00;3.47;;;;;;;3.98;100.00;101410.34;4647793;61;1138834;-80
2024/01/26 00:50:15;;;;;;;16.63;4.13;;;;;;;3.98;100.00;101416.89;4675549;60;1138920;-80
2024/01/26 00:55:22;;;;;;;18.55;3.95;;;;;;;3.90;100.00;101410.64;4599706;61;1138654;-80
2024/01/26 01:00:29;;;;;;;16.00;3.47;;;;;;;3.83;100.00;101421.77;4625155;61;1138614;-80
2024/01/26 01:05:34;;;;;;;15.87;5.00;;;;;;;3.77;100.00;101420.69;4614746;61;1138747;-80
2024/01/26 01:10:40;;;;;;;18.25;4.60;;;;;;;3.72;100.00;101426.52;4616636;61;1138827;-80
2024/01/26 01:15:46;;;;;;;22.07;4.23;;;;;;;3.69;100.00;101423.16;4611240;61;1138932;-80
2024/01/26 01:20:51;;;;;;;19.20;4.40;;;;;;;3.67;100.00;101425.82;4595988;62;1138689;-80
2024/01/26 01:25:57;;;;;;;17.97;4.23;;;;;;;3.68;100.00;101435.38;4590414;60;1139577;-80
2024/01/26 01:31:03;;;;;;;17.63;4.27;;;;;;;3.69;100.00;101436.23;4585983;62;1138932;-80
2024/01/26 01:36:08;;;;;;;19.40;5.50;;;;;;;3.72;100.00;101441.37;4601585;60;1138819;-80
2024/01/26 01:41:14;;;;;;;23.97;5.07;;;;;;;3.74;100.00;101443.03;4632126;61;1138548;-80
2024/01/26 01:46:19;;;;;;;17.10;4.83;;;;;;;3.78;100.00;101442.48;4667398;60;1139005;-80
2024/01/26 01:51:26;;;;;;;12.17;4.50;;;;;;;3.79;100.00;101443.73;4646983;60;1138921;-80
2024/01/26 01:56:32;;;;;;;22.07;3.70;;;;;;;3.80;100.00;101434.13;4604753;61;1138405;-80
2024/01/26 02:01:38;;;;;;;20.85;4.35;;;;;;;3.81;100.00;101438.00;4605791;61;1139125;-80
2024/01/26 02:06:55;;;;;;;17.50;3.35;;;;;;;3.85;100.00;101446.12;4593082;61;1138686;-80
2024/01/26 02:12:01;;;;;;;18.20;3.47;;;;;;;3.88;100.00;101438.62;4616494;60;1140031;-80
2024/01/26 02:17:07;;;;;;;19.77;2.93;;;;;;;3.89;100.00;101437.71;4570858;61;1138636;-80
2024/01/26 02:22:12;;;;;;;16.73;2.87;;;;;;;3.87;100.00;101437.77;4565654;61;1139122;-80
2024/01/26 02:27:19;;;;;;;13.80;3.20;;;;;;;3.87;100.00;101431.67;4588858;62;1138627;-80
2024/01/26 02:32:25;;;;;;;15.93;3.00;;;;;;;3.86;100.00;101433.89;4607536;60;1138675;-80
2024/01/26 02:37:30;;;;;;;11.87;2.40;;;;;;;3.85;100.00;101433.03;4636468;60;1138670;-80
2024/01/26 02:42:36;;;;;;;11.20;2.57;;;;;;;3.87;100.00;101445.61;4659201;60;1138896;-80
2024/01/26 02:47:41;;;;;;;15.50;2.97;;;;;;;3.89;100.00;101449.48;4642093;60;1138671;-80
2024/01/26 02:52:47;;;;;;;8.07;2.00;;;;;;;3.88;100.00;101449.94;4607999;60;1139456;-80
2024/01/26 02:57:53;;;;;;;14.77;3.10;;;;;;;3.96;100.00;101452.30;4587793;61;1136938;-80
2024/01/26 03:02:58;;;;;;;18.93;3.63;;;;;;;3.97;100.00;101452.70;4569648;60;1138753;-80
2024/01/26 03:08:04;;;;;;;14.63;2.47;;;;;;;3.98;100.00;101456.15;4569495;62;1138505;-80
2024/01/26 03:13:10;;;;;;;12.73;2.30;;;;;;;3.98;100.00;101461.38;4570053;61;1138688;-80
2024/01/26 03:18:15;;;;;;;14.77;2.57;;;;;;;3.95;100.00;101468.05;4588941;61;1138877;-80
2024/01/26 03:23:21;;;;;;;9.67;2.77;;;;;;;3.95;100.00;101470.67;4631296;61;1138966;-80
2024/01/26 03:28:27;;;;;;;11.97;2.50;;;;;;;3.94;100.00;101465.89;4601822;61;1137009;-80
2024/01/26 03:33:32;;;;;;;12.93;2.53;;;;;;;3.94;100.00;101472.89;4592287;61;1138775;-81
2024/01/26 03:38:38;;;;;;;21.43;4.40;;;;;;;3.96;100.00;101473.24;4602232;60;1138562;-80
2024/01/26 03:43:43;;;;;;;24.23;4.73;;;;;;;3.94;100.00;101474.20;4639800;60;1138749;-80
2024/01/26 03:48:50;;;;;;;11.93;2.62;;;;;;;3.95;100.00;101475.91;4661192;61;1138491;-80
2024/01/26 03:53:55;;;;;;;9.07;2.33;;;;;;;3.93;100.00;101468.11;4709720;58;1138510;-80
2024/01/26 03:59:01;;;;;;;20.93;3.63;;;;;;;3.94;100.00;101478.98;4739216;58;1136480;-80
2024/01/26 04:04:07;;;;;;;17.03;3.50;;;;;;;3.90;100.00;101479.98;4740320;60;1138674;-80
2024/01/26 04:09:13;;;;;;;15.07;3.97;;;;;;;3.88;100.00;101487.03;4752971;60;1138536;-80
2024/01/26 04:14:18;;;;;;;17.73;4.17;;;;;;;3.90;100.00;101474.75;4750239;58;1138677;-80
2024/01/26 04:19:24;;;;;;;12.07;2.70;;;;;;;3.88;100.00;101475.25;4744677;58;1139282;-80
2024/01/26 04:24:29;;;;;;;16.53;3.80;;;;;;;3.85;100.00;101480.14;4689028;58;1138838;-80
2024/01/26 04:29:35;;;;;;;16.53;3.63;;;;;;;3.85;100.00;101474.05;4603208;61;1139062;-80
2024/01/26 04:34:41;;;;;;;18.03;4.67;;;;;;;3.89;100.00;101466.50;4615795;60;1138853;-80
2024/01/26 04:39:46;;;;;;;17.57;3.70;;;;;;;3.94;100.00;101463.73;4676771;60;1138695;-80
2024/01/26 04:44:54;;;;;;;15.93;3.83;;;;;;;3.94;100.00;101467.66;4660316;60;1138867;-80
2024/01/26 04:49:59;;;;;;;9.00;2.80;;;;;;;3.91;100.00;101456.84;4698082;60;1138749;-80
2024/01/26 04:55:05;;;;;;;21.90;3.63;;;;;;;3.91;100.00;101454.22;4730763;58;1136541;-80
2024/01/26 05:00:11;;;;;;;21.70;3.83;;;;;;;3.91;100.00;101447.67;4752064;58;1138778;-80
2024/01/26 05:05:17;;;;;;;26.00;4.97;;;;;;;3.95;100.00;101444.50;4730424;60;1140631;-80
2024/01/26 05:10:23;;;;;;;25.43;5.00;;;;;;;3.97;100.00;101443.55;4723108;60;1140660;-80
2024/01/26 05:15:29;;;;;;;48.17;9.00;;;;;;;3.96;100.00;101447.52;4765416;58;1138799;-80
2024/01/26 05:20:35;;;;;;;221.43;39.77;;;;;;;3.93;100.00;101456.33;4688296;58;1138503;-80
2024/01/26 05:25:41;;;;;;;152.33;31.47;;;;;;;3.89;100.00;101449.48;4588290;61;1142642;-80
2024/01/26 05:30:47;;;;;;;99.67;17.57;;;;;;;3.86;100.00;101453.06;4670001;60;1152212;-80
2024/01/26 05:35:53;;;;;;;85.32;19.27;;;;;;;3.84;100.00;101443.09;4680959;60;1140740;-80
2024/01/26 05:40:59;;;;;;;53.00;11.18;;;;;;;3.84;100.00;101451.40;4662396;60;1140555;-79
2024/01/26 05:46:04;;;;;;;27.73;7.30;;;;;;;3.85;100.00;101451.80;4688304;59;1141109;-80
2024/01/26 05:51:10;;;;;;;16.80;4.97;;;;;;;3.84;100.00;101448.78;4732199;60;1138991;-79
2024/01/26 05:56:16;;;;;;;24.93;7.27;;;;;;;3.82;100.00;101454.06;4735781;58;1141094;-79
2024/01/26 06:01:21;;;;;;;65.72;15.55;;;;;;;3.81;100.00;101458.93;4750621;59;1138863;-80
2024/01/26 06:06:27;;;;;;;38.77;8.80;;;;;;;3.76;100.00;101452.99;4720344;59;1140924;-80
2024/01/26 06:11:33;;;;;;;133.00;30.80;;;;;;;3.74;100.00;101447.41;4723768;59;1138619;-81
2024/01/26 06:16:38;;;;;;;109.35;25.57;;;;;;;3.72;100.00;101451.38;4716732;59;1143325;-72
2024/01/26 06:21:44;;;;;;;35.50;9.80;;;;;;;3.72;100.00;101454.45;4772704;60;1142996;-74
2024/01/26 06:26:49;;;;;;;28.77;7.93;;;;;;;3.74;100.00;101445.64;4691864;59;1138902;-72
2024/01/26 06:31:56;;;;;;;19.73;6.70;;;;;;;3.77;100.00;101452.54;4676833;60;1138926;-74
2024/01/26 06:37:02;;;;;;;23.43;6.20;;;;;;;3.77;100.00;101448.61;4687621;59;1139068;-75
2024/01/26 06:42:08;;;;;;;25.60;6.07;;;;;;;3.74;100.00;101446.95;4642200;61;1138919;-71
2024/01/26 06:47:13;;;;;;;30.05;6.62;;;;;;;3.76;100.00;101447.76;4650252;60;1138757;-74
2024/01/26 06:52:19;;;;;;;28.03;6.83;;;;;;;3.75;100.00;101461.74;4687033;60;1140049;-75
2024/01/26 06:57:25;;;;;;;26.70;6.50;;;;;;;3.73;100.00;101464.01;4704720;60;1138946;-76
2024/01/26 07:02:30;;;;;;;27.83;7.10;;;;;;;3.72;100.00;101468.38;4645426;60;1138521;-71
2024/01/26 07:07:36;;;;;;;44.50;9.83;;;;;;;3.71;100.00;101457.97;4544164;62;1138862;-74
2024/01/26 07:12:42;;;;;;;23.13;6.47;;;;;;;3.70;100.00;101458.88;4695551;60;1138618;-73
2024/01/26 07:17:49;;;;;;;25.13;7.10;;;;;;;3.72;100.00;101461.84;4662128;59;1138901;-80
2024/01/26 07:22:55;;;;;;;29.67;6.35;;;;;;;3.69;100.00;101455.41;4660254;61;1139011;-78
2024/01/26 07:28:01;;;;;;;15.05;4.50;;;;;;;3.70;100.00;101445.80;4674270;59;1138943;-79
2024/01/26 07:33:07;;;;;;;21.53;5.00;;;;;;;3.70;100.00;101436.64;4629100;59;1138749;-80
2024/01/26 07:38:12;;;;;;;18.33;4.00;;;;;;;3.72;100.00;101440.91;4676738;59;1139494;-78
2024/01/26 07:43:18;;;;;;;28.70;8.20;;;;;;;3.75;100.00;101437.34;4676411;59;1138607;-79
2024/01/26 07:48:23;;;;;;;25.83;7.17;;;;;;;3.78;100.00;101445.95;4667704;60;1138704;-79
2024/01/26 07:53:29;;;;;;;20.03;6.53;;;;;;;3.84;100.00;101439.63;4710234;58;1138657;-81
2024/01/26 07:58:34;;;;;;;54.37;21.30;;;;;;;3.87;100.00;101431.67;4745663;58;1138508;-80
2024/01/26 08:03:40;;;;;;;56.73;17.73;;;;;;;3.93;100.00;101423.62;4717904;59;1141192;-79
2024/01/26 08:08:45;;;;;;;30.83;7.03;;;;;;;3.98;100.00;101412.96;4691216;60;1140630;-79
2024/01/26 08:13:51;;;;;;;18.20;5.95;;;;;;;4.03;100.00;101394.03;4639010;61;1138666;-81
2024/01/26 08:18:57;;;;;;;22.73;4.60;;;;;;;4.07;100.00;101396.48;4662838;60;1138979;-78
2024/01/26 08:24:02;;;;;;;14.30;5.00;;;;;;;4.14;100.00;101397.09;4623035;60;1140987;-80
2024/01/26 08:29:08;;;;;;;20.43;7.83;;;;;;;4.16;100.00;101393.97;4694426;59;1138718;-82
2024/01/26 08:34:13;;;;;;;31.30;11.80;;;;;;;4.18;100.00;101383.84;4707038;60;1138736;-77
2024/01/26 08:39:19;;;;;;;14.93;3.87;;;;;;;4.24;100.00;101374.47;4738325;59;1140993;-80
2024/01/26 08:44:25;;;;;;;30.83;8.63;;;;;;;4.30;100.00;101378.59;4684071;59;1138695;-80
2024/01/26 08:49:30;;;;;;;15.88;4.40;;;;;;;4.45;100.00;101375.84;4716167;59;1138622;-80
2024/01/26 08:54:36;;;;;;;10.70;3.70;;;;;;;4.57;100.00;101374.09;4729704;59;1138933;-78
2024/01/26 08:59:42;;;;;;;17.40;3.80;;;;;;;4.68;100.00;101371.03;4762863;58;1138441;-77
2024/01/26 09:04:47;;;;;;;13.43;3.70;;;;;;;4.79;100.00;101367.52;4773585;58;1140837;-76
2024/01/26 09:09:53;;;;;;;12.55;4.25;;;;;;;4.89;100.00;101351.35;4793618;58;1138934;-79
2024/01/26 09:14:59;;;;;;;21.77;5.00;;;;;;;4.90;100.00;101353.06;4754315;58;1138914;-80
2024/01/26 09:20:06;;;;;;;21.57;4.37;;;;;;;4.93;100.00;101347.70;4741503;59;1139150;-79
2024/01/26 09:25:12;;;;;;;21.13;5.20;;;;;;;4.94;100.00;101342.86;4729329;60;1139009;-78
2024/01/26 09:30:18;;;;;;;16.17;4.63;;;;;;;4.96;100.00;101340.17;4692330;59;1138902;-80
2024/01/26 09:35:24;;;;;;;29.02;6.15;;;;;;;4.92;100.00;101317.16;4711409;59;1139049;-78
2024/01/26 09:40:30;;;;;;;22.17;5.43;;;;;;;4.97;100.00;101301.70;4764879;59;1138984;-81
2024/01/26 09:45:36;;;;;;;28.33;5.87;;;;;;;5.04;100.00;101295.30;4720543;59;1138797;-79
2024/01/26 09:50:42;;;;;;;17.47;4.63;;;;;;;5.05;100.00;101290.42;4821390;58;1139079;-77
2024/01/26 09:55:49;;;;;;;42.80;8.33;;;;;;;5.07;100.00;101295.15;4773467;59;1138935;-79
2024/01/26 10:00:56;;;;;;;12.80;4.10;;;;;;;5.14;100.00;101293.98;4687987;58;1138860;-79
2024/01/26 10:06:03;;;;;;;23.18;3.52;;;;;;;5.24;100.00;101276.92;4636707;60;1139016;-79
2024/01/26 10:11:09;;;;;;;31.43;5.63;;;;;;;5.23;100.00;101268.20;4620186;60;1138979;-78
2024/01/26 10:16:15;;;;;;;18.17;6.13;;;;;;;5.30;100.00;101260.94;4732780;60;1139170;-77
2024/01/26 10:21:22;;;;;;;63.47;12.03;;;;;;;5.39;100.00;101257.05;4743125;59;1141087;-79
2024/01/26 10:26:29;;;;;;;40.63;9.20;;;;;;;5.45;100.00;101246.30;4792523;58;1140775;-79
2024/01/26 10:31:36;;;;;;;13.80;4.63;;;;;;;5.50;100.00;101238.58;4813598;58;1138731;-80
2024/01/26 10:36:44;;;;;;;16.47;4.73;;;;;;;5.59;100.00;101220.28;4755835;59;1141645;-77
2024/01/26 10:41:52;;;;;;;23.23;5.40;;;;;;;5.62;100.00;101202.63;4737935;59;1138753;-78
2024/01/26 10:47:00;;;;;;;14.53;2.77;;;;;;;5.71;100.00;101196.09;4761670;58;1138930;-77
2024/01/26 10:52:09;;;;;;;14.60;3.87;;;;;;;5.77;100.00;101203.69;4802110;59;1138934;-79
2024/01/26 10:57:16;;;;;;;21.30;5.83;;;;;;;5.76;100.00;101175.73;4702859;59;1138706;-80
2024/01/26 11:02:33;;;;;;;17.32;4.45;;;;;;;5.79;100.00;101159.85;4682052;59;1138874;-76
2024/01/26 11:07:40;;;;;;;88.93;29.43;;;;;;;5.83;100.00;101151.34;4713664;60;1138504;-78
2024/01/26 11:12:46;;;;;;;152.03;42.10;;;;;;;5.87;100.00;101134.07;4693157;60;1140840;-80
2024/01/26 11:17:56;;;;;;;120.93;46.70;;;;;;;5.95;100.00;101120.16;4750288;58;1145563;-74
2024/01/26 11:23:06;;;;;;;58.83;17.10;;;;;;;6.00;100.00;101106.78;4776079;58;1142852;-76
2024/01/26 11:28:17;;;;;;;41.47;11.03;;;;;;;5.96;100.00;101105.22;4758939;58;1141141;-78
2024/01/26 11:33:23;;;;;;;55.30;16.10;;;;;;;5.93;100.00;101099.69;4785791;58;1140841;-78
2024/01/26 11:38:29;;;;;;;66.97;18.90;;;;;;;5.91;100.00;101076.59;4699990;60;1141162;-77
2024/01/26 11:43:40;;;;;;;47.90;15.47;;;;;;;5.99;100.00;101057.36;4702222;60;1142957;-76
2024/01/26 11:48:45;;;;;;;27.13;7.80;;;;;;;6.05;100.00;101042.23;4735363;58;1140702;-78
2024/01/26 11:53:51;;;;;;;36.60;11.60;;;;;;;6.03;100.00;101029.19;4743274;58;1141590;-75
2024/01/26 11:58:58;;;;;;;33.10;10.45;;;;;;;6.17;100.00;101030.64;4666827;59;1143475;-80
2024/01/26 12:04:03;;;;;;;21.13;5.77;;;;;;;6.23;100.00;101008.48;4707526;58;1140964;-77
2024/01/26 12:09:09;;;;;;;20.33;5.30;;;;;;;6.23;100.00;101003.22;4743916;58;1138788;-76
2024/01/26 12:14:15;;;;;;;29.40;6.83;;;;;;;6.24;100.00;100984.76;4737722;59;1140747;-79
2024/01/26 12:19:22;;;;;;;49.27;17.33;;;;;;;6.16;100.00;101001.36;4611605;61;1138869;-79
2024/01/26 12:24:27;;;;;;;38.43;9.10;;;;;;;6.18;100.00;100978.50;4702400;58;1140839;-78
2024/01/26 12:29:35;;;;;;;34.53;12.57;;;;;;;6.21;100.00;100973.09;4735008;59;1141066;-78
2024/01/26 12:34:42;;;;;;;41.47;14.50;;;;;;;6.30;100.00;100932.34;4623469;60;1140964;-79
2024/01/26 12:39:49;;;;;;;100.33;33.30;;;;;;;6.34;100.00;100929.48;4636930;61;1141101;-78
2024/01/26 12:44:56;;;;;;;83.45;34.10;;;;;;;6.34;100.00;100938.68;4719549;60;1145141;-76
2024/01/26 12:50:01;;;;;;;44.85;18.98;;;;;;;6.33;100.00;100929.09;4702352;57;1143146;-77
2024/01/26 12:55:07;;;;;;;28.13;7.57;;;;;;;6.33;100.00;100917.28;4680590;59;1142896;-79
2024/01/26 13:00:15;;;;;;;33.47;10.00;;;;;;;6.33;100.00;100904.61;4705908;58;1139302;-80
2024/01/26 13:05:21;;;;;;;22.17;6.90;;;;;;;6.32;100.00;100888.46;4698419;60;1140917;-80
2024/01/26 13:10:26;;;;;;;33.83;7.93;;;;;;;6.27;100.00;100882.60;4701532;59;1139490;-79
2024/01/26 13:15:32;;;;;;;27.30;8.13;;;;;;;6.27;100.00;100870.78;4671825;60;1140658;-79
2024/01/26 13:20:37;;;;;;;25.77;8.50;;;;;;;6.23;100.00;100842.55;4717348;60;1138811;-77
2024/01/26 13:25:43;;;;;;;36.33;7.90;;;;;;;6.22;100.00;100829.49;4662517;60;1138673;-82
2024/01/26 13:30:49;;;;;;;31.53;8.13;;;;;;;6.19;100.00;100812.59;4694751;60;1138593;-79
2024/01/26 13:35:55;;;;;;;39.97;13.20;;;;;;;6.20;100.00;100800.69;4699980;60;1139384;-77
2024/01/26 13:41:02;;;;;;;31.73;7.92;;;;;;;6.19;100.00;100788.48;4713110;60;1143014;-78
2024/01/26 13:46:09;;;;;;;32.15;10.70;;;;;;;6.18;100.00;100784.62;4707233;60;1138592;-78
2024/01/26 13:51:14;;;;;;;32.65;8.78;;;;;;;6.16;100.00;100750.56;4683189;60;1141003;-78
2024/01/26 13:56:20;;;;;;;33.07;7.40;;;;;;;6.16;100.00;100737.44;4710204;60;1140926;-79
2024/01/26 14:01:25;;;;;;;32.27;9.67;;;;;;;6.17;100.00;100730.41;4689876;60;1140972;-78
2024/01/26 14:06:31;;;;;;;25.53;7.77;;;;;;;6.14;100.00;100718.29;4696629;60;1139066;-76
2024/01/26 14:11:37;;;;;;;33.83;8.33;;;;;;;6.10;100.00;100702.81;4732031;60;1138806;-76
2024/01/26 14:16:42;;;;;;;37.83;11.77;;;;;;;6.09;100.00;100697.19;4711698;60;1140910;-81
2024/01/26 14:21:48;;;;;;;47.93;18.33;;;;;;;6.06;100.00;100702.13;4694829;58;1140897;-79
2024/01/26 14:26:54;;;;;;;34.13;9.13;;;;;;;6.03;100.00;100684.39;4714550;60;1140797;-77
2024/01/26 14:31:59;;;;;;;49.27;19.12;;;;;;;6.05;100.00;100668.09;4684848;60;1138829;-80
2024/01/26 14:37:05;;;;;;;31.48;10.68;;;;;;;6.03;100.00;100658.13;4685981;59;1142883;-79
2024/01/26 14:42:11;;;;;;;36.17;10.57;;;;;;;5.92;100.00;100642.53;4724442;59;1142984;-79
2024/01/26 14:47:16;;;;;;;41.13;11.37;;;;;;;5.87;100.00;100642.36;4611792;61;1143068;-79
2024/01/26 14:52:22;;;;;;;51.68;12.95;;;;;;;5.80;100.00;100648.91;4652843;60;1142891;-79
2024/01/26 14:57:27;;;;;;;40.57;10.33;;;;;;;5.66;100.00;100645.24;4699261;59;1140981;-79
2024/01/26 15:02:35;;;;;;;47.17;15.10;;;;;;;5.63;100.00;100624.91;4687373;60;1142855;-82
2024/01/26 15:07:42;;;;;;;47.27;14.35;;;;;;;5.60;100.00;100621.98;4620572;60;1143438;-79
2024/01/26 15:12:47;;;;;;;40.00;15.10;;;;;;;5.60;100.00;100605.39;4639099;60;1143037;-78
2024/01/26 15:17:53;;;;;;;24.93;9.90;;;;;;;5.54;100.00;100593.92;4661959;60;1143017;-79
2024/01/26 15:22:58;;;;;;;40.05;15.20;;;;;;;5.51;100.00;100591.00;4616311;61;1141064;-78
2024/01/26 15:28:06;;;;;;;40.37;14.13;;;;;;;5.41;100.00;100584.58;4620066;60;1143020;-79
2024/01/26 15:33:12;;;;;;;43.87;14.77;;;;;;;5.32;100.00;100565.89;4639107;60;1143148;-80
2024/01/26 15:38:17;;;;;;;29.10;13.10;;;;;;;5.30;100.00;100551.09;4685026;59;1142802;-80
2024/01/26 15:43:23;;;;;;;31.43;13.47;;;;;;;5.27;100.00;100528.12;4671022;60;1143049;-79
2024/01/26 15:48:28;;;;;;;39.90;16.27;;;;;;;5.28;100.00;100514.92;4673046;60;1142745;-77
2024/01/26 15:53:34;;;;;;;45.90;22.83;;;;;;;5.28;100.00;100500.97;4697233;60;1140659;-79
2024/01/26 15:58:40;;;;;;;34.40;18.17;;;;;;;5.22;100.00;100496.05;4662821;60;1140749;-76
2024/01/26 16:03:50;;;;;;;26.10;10.40;;;;;;;5.17;100.00;100485.00;4662701;61;1140781;-82
2024/01/26 16:08:55;;;;;;;29.57;14.95;;;;;;;5.17;100.00;100488.93;4694007;60;1143138;-81
2024/01/26 16:14:02;;;;;;;17.83;9.00;;;;;;;5.19;100.00;100478.74;4678569;60;1141413;-79
2024/01/26 16:19:10;;;;;;;30.40;16.00;;;;;;;5.19;100.00;100460.85;4624133;61;1140964;-80
2024/01/26 16:24:15;;;;;;;19.95;10.82;;;;;;;5.18;100.00;100448.67;4713889;60;1143193;-80
2024/01/26 16:29:21;;;;;;;30.50;14.80;;;;;;;5.19;100.00;100434.64;4715162;60;1142756;-78
2024/01/26 16:34:27;;;;;;;38.67;23.70;;;;;;;5.18;100.00;100420.69;4667811;60;1143332;-80
2024/01/26 16:39:33;;;;;;;14.87;9.17;;;;;;;5.17;100.00;100413.75;4709756;60;1142831;-77
2024/01/26 16:44:39;;;;;;;28.27;11.70;;;;;;;5.17;100.00;100401.95;4725905;60;1138618;-79
2024/01/26 16:49:48;;;;;;;11.70;7.83;;;;;;;5.16;100.00;100392.39;4712447;60;1140886;-82
2024/01/26 16:54:55;;;;;;;31.80;13.07;;;;;;;5.13;100.00;100384.70;4672615;60;1139109;-79
2024/01/26 17:00:01;;;;;;;30.70;11.00;;;;;;;5.09;100.00;100381.02;4721464;60;1144849;-77
2024/01/26 17:05:07;;;;;;;35.03;12.53;;;;;;;5.06;100.00;100380.72;4684153;58;1140882;-79
2024/01/26 17:10:13;;;;;;;44.80;16.93;;;;;;;5.03;100.00;100375.69;4699340;58;1140977;-79
2024/01/26 17:15:18;;;;;;;29.37;16.67;;;;;;;5.02;100.00;100375.77;4692436;60;1140935;-78
2024/01/26 17:20:24;;;;;;;56.13;19.93;;;;;;;5.03;100.00;100369.59;4683315;61;1141087;-78
2024/01/26 17:25:30;;;;;;;80.57;26.17;;;;;;;5.03;100.00;100357.34;4649439;60;1141015;-77
2024/01/26 17:30:35;;;;;;;39.13;14.63;;;;;;;5.07;100.00;100371.08;4672796;60;1140769;-78
2024/01/26 17:35:41;;;;;;;21.03;10.97;;;;;;;5.11;100.00;100362.97;4686484;59;1142964;-79
2024/01/26 17:40:46;;;;;;;25.67;11.77;;;;;;;5.11;100.00;100364.28;4714898;59;1140926;-80
2024/01/26 17:45:52;;;;;;;25.37;11.05;;;;;;;5.15;100.00;100374.12;4678337;60;1140771;-79
2024/01/26 17:50:58;;;;;;;24.37;12.60;;;;;;;5.13;100.00;100387.31;4654591;60;1141076;-79
2024/01/26 17:56:05;;;;;;;22.35;11.20;;;;;;;5.12;100.00;100379.54;4583734;61;1141695;-77
2024/01/26 18:01:11;;;;;;;22.77;11.50;;;;;;;5.14;100.00;100390.32;4597964;62;1140777;-77
2024/01/26 18:06:16;;;;;;;20.40;8.93;;;;;;;5.16;100.00;100381.91;4584002;62;1141104;-77
2024/01/26 18:11:22;;;;;;;18.93;8.50;;;;;;;5.21;100.00;100365.42;4610715;62;1139497;-79
2024/01/26 18:16:27;;;;;;;14.37;8.13;;;;;;;5.32;100.00;100374.00;4633015;61;1138574;-80
2024/01/26 18:21:34;;;;;;;12.30;7.30;;;;;;;5.40;100.00;100373.07;4689776;60;1138922;-79
2024/01/26 18:26:41;;;;;;;12.47;6.67;;;;;;;5.48;100.00;100377.88;4702952;60;1138726;-78
2024/01/26 18:31:46;;;;;;;10.03;6.30;;;;;;;5.55;100.00;100370.86;4677614;60;1138747;-78
2024/01/26 18:36:53;;;;;;;11.57;5.53;;;;;;;5.64;100.00;100370.33;4701774;58;1140659;-79
2024/01/26 18:41:59;;;;;;;9.80;5.05;;;;;;;5.73;100.00;100378.58;4693628;60;1141836;-81
2024/01/26 18:47:05;;;;;;;13.30;5.00;;;;;;;5.78;100.00;100383.09;4693915;60;1138752;-81
2024/01/26 18:52:11;;;;;;;8.35;3.80;;;;;;;5.81;100.00;100386.35;4686029;60;1140935;-81
2024/01/26 18:57:16;;;;;;;8.17;4.03;;;;;;;5.86;100.00;100396.58;4692530;61;1138776;-80
2024/01/26 19:02:22;;;;;;;5.73;2.90;;;;;;;5.91;100.00;100403.75;4716614;60;1138559;-78
2024/01/26 19:07:27;;;;;;;8.33;4.93;;;;;;;5.96;100.00;100409.55;4678298;60;1139105;-82
2024/01/26 19:12:33;;;;;;;8.97;3.80;;;;;;;6.00;100.00;100406.66;4716404;59;1138563;-78
2024/01/26 19:17:39;;;;;;;5.03;2.33;;;;;;;6.08;100.00;100406.67;4764689;58;1139309;-81
2024/01/26 19:22:45;;;;;;;9.77;3.30;;;;;;;6.16;100.00;100401.78;4762088;59;1136897;-80
2024/01/26 19:27:50;;;;;;;4.40;2.63;;;;;;;6.22;100.00;100413.24;4738952;59;1138879;-81
2024/01/26 19:32:56;;;;;;;8.17;2.60;;;;;;;6.28;100.00;100418.94;4754468;59;1190985;-82
2024/01/26 19:38:02;;;;;;;2.07;1.83;;;;;;;6.33;100.00;100430.02;4740405;58;1136933;-82
2024/01/26 19:43:08;;;;;;;3.77;2.50;;;;;;;6.35;100.00;100435.19;4740244;58;1136567;-81
2024/01/26 19:48:13;;;;;;;5.23;1.70;;;;;;;6.35;100.00;100456.20;4735567;59;1136866;-82
2024/01/26 19:53:19;;;;;;;1.90;1.10;;;;;;;6.33;100.00;100464.63;4746392;58;1138776;-81
2024/01/26 19:58:25;;;;;;;13.03;4.33;;;;;;;6.30;100.00;100470.06;4755496;58;1136805;-82
2024/01/26 20:03:33;;;;;;;8.23;1.03;;;;;;;6.29;100.00;100473.16;4800337;58;1138609;-81
2024/01/26 20:08:38;;;;;;;6.37;1.60;;;;;;;6.25;100.00;100480.03;4722816;59;1137044;-82
2024/01/26 20:13:44;;;;;;;8.48;5.95;;;;;;;6.21;100.00;100501.68;4689871;60;1136686;-85
2024/01/26 20:18:50;;;;;;;1.17;0.80;;;;;;;6.12;100.00;100523.22;4680179;61;1136863;-82
2024/01/26 20:23:56;;;;;;;26.00;12.07;;;;;;;5.95;100.00;100571.95;4698934;60;1136882;-82
2024/01/26 20:29:01;;;;;;;42.67;17.53;;;;;;;5.82;100.00;100587.97;4688476;60;1141060;-77
2024/01/26 20:34:07;;;;;;;18.42;8.13;;;;;;;5.70;100.00;100623.63;4687763;59;1140903;-75
2024/01/26 20:39:12;;;;;;;17.76;5.54;;;;;;;5.66;100.00;100633.90;4630346;61;1138736;-77
2024/01/26 20:44:19;;;;;;;8.27;4.63;;;;;;;5.63;100.00;100652.00;4704990;60;1138692;-77
2024/01/26 20:49:27;;;;;;;13.43;5.97;;;;;;;5.57;100.00;100661.50;4719506;60;1137468;-79
2024/01/26 20:54:33;;;;;;;16.77;7.20;;;;;;;5.57;100.00;100679.87;4709412;59;1138848;-79
2024/01/26 20:59:47;;;;;;;21.50;7.57;;;;;;;5.53;100.00;100685.35;4706775;60;1139688;-79
2024/01/26 21:05:16;;;;;;;7.53;3.98;;;;;;;5.50;100.00;100699.97;4682548;60;1138769;-79
2024/01/26 21:10:22;;;;;;;12.57;3.10;;;;;;;5.47;100.00;100723.27;4688587;58;1136798;-82
2024/01/26 21:15:28;;;;;;;17.17;6.03;;;;;;;5.46;100.00;100739.94;4701863;61;1138986;-83
2024/01/26 21:20:34;;;;;;;17.73;5.83;;;;;;;5.45;100.00;100747.89;4666708;58;1139109;-83
2024/01/26 21:25:40;;;;;;;13.67;5.40;;;;;;;5.43;100.00;100763.70;4678880;61;1138861;-80
2024/01/26 21:30:48;;;;;;;28.62;11.85;;;;;;;5.42;100.00;100769.88;4722621;60;1138661;-84
2024/01/26 21:35:54;;;;;;;8.37;4.30;;;;;;;5.38;100.00;100773.58;4723802;59;1141354;-79
2024/01/26 21:41:00;;;;;;;15.93;3.03;;;;;;;5.37;100.00;100777.13;4740859;58;1136926;-83
2024/01/26 21:46:06;;;;;;;5.55;2.08;;;;;;;5.34;100.00;100786.95;4690404;61;1139563;-82
2024/01/26 21:51:13;;;;;;;18.10;3.85;;;;;;;5.30;100.00;100810.70;4657602;61;1136915;-80
2024/01/26 21:56:18;;;;;;;14.67;3.57;;;;;;;5.29;100.00;100812.09;4704380;60;1138722;-78
2024/01/26 22:01:24;;;;;;;13.57;3.30;;;;;;;5.28;100.00;100823.50;4708196;60;1138977;-84
2024/01/26 22:06:34;;;;;;;20.13;3.93;;;;;;;5.27;100.00;100834.45;4708138;59;1138948;-80
2024/01/26 22:11:38;;;;;;;15.03;3.53;;;;;;;5.23;100.00;100842.08;4695279;58;1138861;-81
2024/01/26 22:16:44;;;;;;;7.20;2.40;;;;;;;5.21;100.00;100850.48;4715095;59;1139450;-85
2024/01/26 22:21:50;;;;;;;15.07;3.90;;;;;;;5.22;100.00;100860.05;4670428;59;1136924;-81
2024/01/26 22:26:55;;;;;;;12.57;3.07;;;;;;;5.23;100.00;100869.61;4643659;60;1138905;-80
2024/01/26 22:32:01;;;;;;;9.67;2.97;;;;;;;5.20;100.00;100877.63;4710822;59;1138942;-80
2024/01/26 22:37:06;;;;;;;11.15;2.87;;;;;;;5.17;100.00;100890.91;4730980;59;1137284;-85
2024/01/26 22:42:12;;;;;;;22.37;4.30;;;;;;;5.15;100.00;100877.48;4733538;58;1138962;-82
2024/01/26 22:47:17;;;;;;;19.10;4.90;;;;;;;5.13;100.00;100892.44;4691388;60;1138838;-82
2024/01/26 22:52:23;;;;;;;16.27;2.63;;;;;;;5.08;100.00;100883.48;4705615;60;1138943;-81